Buffalo, Wyoming
Current Conditions -  °F | °C
As of 3:48 PM on Monday 22 Dec 2014 (Local Time) from KBYG Reporting Station
Light Snow Light Snow  
Wind Chill: 15°   Ceiling: 1200
Heat Index: 30°   Visibility: 2.5mi
Dew Point: 25°   Wind: 29mph
Humidity: 80%   Direction: 330°NNW
Pressure: 29.78"   Gusts: 45mph
Location:  44.35°N, 106.7°W
Report Text: KBYG 222248Z AUTO 33025G39KT 2 1/2SM -SN BKN012 BKN023 M01/M04 A2978 RMK AO2 PK WND 32042/2225 SNB19 P0000
Loading
Personal Weather Stations






























Interactive Weather Map New forecast layout! Learn more

10-Day Weather Forecast

Advertisements
Track Severe Weather on mobile